Nearby METAR Reports

 

LFTH - Hyeres/Le Palyve, France
Distance from station: OSO 12km
Mise jour: 19/07/2018 07:30
clair
clair
 Wind from calm
Vent: calme
Temprature: 22°C
Point de rose: 17°C
Humidit: 73%
Baromtre: 1013 hPa
Rsum: clair
Visibility: greater than 10 km
2018/07/19 05:30 LFTH 190530Z AUTO 00000KT CAVOK 22/17 Q1013 NOSIG
LFMC - Le Luc/Le Cannet, France
Distance from station: NNE 26km
Mise jour: 19/07/2018 07:00
Few Clouds
Few Clouds
 Wind from O
Vent: O 6 km/h
Temprature: 20°C
Point de rose: 16°C
Humidit: 78%
Baromtre: 1013 hPa
Clouds: Few Clouds
Visibility: 10 km
Cloud details: Few Clouds 610 m
2018/07/19 05:00 LFMC 190500Z 28003KT 9999 FEW020 20/16 Q1013